Time;durP1;ratioP1;P1;durP2;ratioP2;P2;SDS_P1;SDS_P2;PMS_P1;PMS_P2;Temp;Humidity;BMP_temperature;BMP_pressure;BME280_temperature;BME280_humidity;BME280_pressure;Samples;Min_cycle;Max_cycle;Signal;HPM_P1;HPM_P2
2023/08/31 00:02:57;;;;;;;;;;;12.80;99.90;;;;;;12276846;28;19934;-82
2023/08/31 00:08:59;;;;;;;;;;;12.80;99.90;;;;;;12288077;28;19941;-81
2023/08/31 00:15:01;;;;;;;;;;;12.70;99.90;;;;;;12266369;28;20410;-80
2023/08/31 00:21:03;;;;;;;;;;;12.70;99.90;;;;;;12278576;28;19926;-82
2023/08/31 00:27:06;;;;;;;;;;;12.60;99.90;;;;;;12269302;28;19934;-81
2023/08/31 00:33:08;;;;;;;;;;;12.60;99.90;;;;;;12271229;28;19930;-81
2023/08/31 00:39:11;;;;;;;;;;;12.60;99.90;;;;;;12264835;28;19961;-80
2023/08/31 00:45:15;;;;;;;;;;;12.50;99.90;;;;;;12268166;28;19937;-81
2023/08/31 00:51:17;;;;;;;;;;;12.50;99.90;;;;;;12291551;28;19930;-81
2023/08/31 00:57:19;;;;;;;;;;;12.50;99.90;;;;;;12276486;28;19981;-80
2023/08/31 01:03:39;;;;;;;;;;;12.50;99.90;;;;;;12271576;28;19938;-81
2023/08/31 01:09:59;;;;;;;;;;;12.50;99.90;;;;;;12286086;28;20506;-81
2023/08/31 01:16:05;;;;;;;;;;;12.40;99.90;;;;;;12292685;28;19926;-80
2023/08/31 01:22:09;;;;;;;;;;;12.50;99.90;;;;;;12288558;28;19930;-80
2023/08/31 01:28:12;;;;;;;;;;;12.40;99.90;;;;;;12289753;28;19934;-80
2023/08/31 01:34:14;;;;;;;;;;;12.30;99.90;;;;;;12288022;28;19938;-80
2023/08/31 01:40:18;;;;;;;;;;;12.30;99.90;;;;;;12274683;28;19941;-80
2023/08/31 01:46:21;;;;;;;;;;;12.30;99.90;;;;;;12273308;28;20001;-80
2023/08/31 01:52:27;;;;;;;;;;;12.20;99.90;;;;;;12271393;28;20840;-80
2023/08/31 01:58:28;;;;;;;;;;;12.30;99.90;;;;;;12282231;28;20033;-81
2023/08/31 02:04:31;;;;;;;;;;;12.30;99.90;;;;;;12274202;28;19958;-81
2023/08/31 02:10:32;;;;;;;;;;;12.40;99.90;;;;;;12276214;28;19967;-80
2023/08/31 02:16:34;;;;;;;;;;;12.20;99.90;;;;;;12273356;28;19996;-82
2023/08/31 02:22:36;;;;;;;;;;;12.40;99.90;;;;;;12272722;28;20382;-81
2023/08/31 02:28:38;;;;;;;;;;;12.30;99.90;;;;;;12262693;28;19981;-81
2023/08/31 02:34:40;;;;;;;;;;;12.30;99.90;;;;;;12265803;28;20431;-80
2023/08/31 02:40:45;;;;;;;;;;;12.20;99.90;;;;;;12268038;28;19931;-80
2023/08/31 02:53:54;;;;;;;;;;;12.30;99.90;;;;;;12266274;28;19929;-80
2023/08/31 02:59:56;;;;;;;;;;;12.30;99.90;;;;;;12274640;28;20029;-79
2023/08/31 03:05:58;;;;;;;;;;;12.20;99.90;;;;;;12270732;28;19930;-80
2023/08/31 03:12:00;;;;;;;;;;;12.20;99.90;;;;;;12272098;28;19930;-79
2023/08/31 03:18:02;;;;;;;;;;;12.10;99.90;;;;;;12272368;28;20040;-80
2023/08/31 03:24:04;;;;;;;;;;;12.20;99.90;;;;;;12267098;28;20649;-79
2023/08/31 03:30:06;;;;;;;;;;;12.20;99.90;;;;;;12266576;28;20292;-80
2023/08/31 03:36:08;;;;;;;;;;;12.20;99.90;;;;;;12234317;28;19930;-79
2023/08/31 03:42:10;;;;;;;;;;;12.20;99.90;;;;;;12290042;28;20021;-81
2023/08/31 03:48:12;;;;;;;;;;;12.10;99.90;;;;;;12279734;28;19931;-80
2023/08/31 03:54:13;;;;;;;;;;;12.20;99.90;;;;;;12276908;28;19931;-80
2023/08/31 04:00:16;;;;;;;;;;;12.10;99.90;;;;;;12260598;28;19930;-80
2023/08/31 04:06:18;;;;;;;;;;;12.10;99.90;;;;;;12256509;28;19946;-80
2023/08/31 04:12:21;;;;;;;;;;;12.10;99.90;;;;;;12256731;28;20434;-81
2023/08/31 04:18:23;;;;;;;;;;;12.00;99.90;;;;;;12267361;28;19930;-82
2023/08/31 04:24:26;;;;;;;;;;;12.00;99.90;;;;;;12264287;28;20343;-80
2023/08/31 04:30:28;;;;;;;;;;;12.10;99.90;;;;;;12276172;28;19985;-80
2023/08/31 04:36:30;;;;;;;;;;;12.10;99.90;;;;;;12266627;28;20422;-81
2023/08/31 04:42:32;;;;;;;;;;;12.00;99.90;;;;;;12258071;28;20414;-81
2023/08/31 04:48:34;;;;;;;;;;;12.00;99.90;;;;;;12268314;28;19937;-79
2023/08/31 04:54:36;;;;;;;;;;;11.90;99.90;;;;;;12267676;28;20442;-80
2023/08/31 05:00:39;;;;;;;;;;;11.90;99.90;;;;;;12278259;28;20911;-81
2023/08/31 05:06:41;;;;;;;;;;;12.00;99.90;;;;;;12290065;28;19938;-81
2023/08/31 05:12:43;;;;;;;;;;;12.00;99.90;;;;;;12271500;28;19941;-80
2023/08/31 05:18:45;;;;;;;;;;;12.10;99.90;;;;;;12274149;28;19941;-81
2023/08/31 05:24:47;;;;;;;;;;;12.00;99.90;;;;;;12272857;28;20033;-80
2023/08/31 05:30:50;;;;;;;;;;;12.00;99.90;;;;;;12277175;28;19993;-80
2023/08/31 05:36:53;;;;;;;;;;;12.00;99.90;;;;;;12269910;28;19981;-80
2023/08/31 05:42:56;;;;;;;;;;;12.10;99.90;;;;;;12271613;28;19930;-81
2023/08/31 05:48:58;;;;;;;;;;;12.20;99.90;;;;;;12274880;28;19934;-80
2023/08/31 05:55:00;;;;;;;;;;;12.20;99.90;;;;;;12269216;28;19930;-82
2023/08/31 06:01:02;;;;;;;;;;;12.20;99.90;;;;;;12268426;28;20013;-79
2023/08/31 06:07:04;;;;;;;;;;;12.30;99.90;;;;;;12249609;28;19930;-80
2023/08/31 06:13:07;;;;;;;;;;;12.30;99.90;;;;;;12263160;28;19935;-80
2023/08/31 06:19:08;;;;;;;;;;;12.30;99.90;;;;;;12250173;28;19937;-80
2023/08/31 06:25:11;;;;;;;;;;;12.30;99.90;;;;;;12255188;28;19977;-80
2023/08/31 06:31:13;;;;;;;;;;;12.30;99.90;;;;;;12257008;28;20352;-80
2023/08/31 06:37:15;;;;;;;;;;;12.50;99.90;;;;;;12279198;28;19930;-81
2023/08/31 06:43:17;;;;;;;;;;;12.80;99.90;;;;;;12270556;28;19934;-80
2023/08/31 06:49:19;;;;;;;;;;;12.80;99.90;;;;;;12262898;28;19974;-80
2023/08/31 06:55:20;;;;;;;;;;;12.70;99.90;;;;;;12259159;28;19935;-81
2023/08/31 07:01:22;;;;;;;;;;;12.60;99.90;;;;;;12288531;28;20105;-80
2023/08/31 07:07:25;;;;;;;;;;;12.60;99.90;;;;;;12271831;28;19931;-80
2023/08/31 07:13:27;;;;;;;;;;;12.80;99.90;;;;;;12270483;28;19934;-80
2023/08/31 07:19:30;;;;;;;;;;;12.90;99.90;;;;;;12295128;28;20399;-82
2023/08/31 07:25:32;;;;;;;;;;;13.00;99.90;;;;;;12281673;28;19930;-81
2023/08/31 07:31:33;;;;;;;;;;;12.80;99.90;;;;;;12279622;28;19931;-80
2023/08/31 07:37:37;;;;;;;;;;;12.80;99.90;;;;;;12282504;28;21128;-80
2023/08/31 07:43:38;;;;;;;;;;;13.00;99.90;;;;;;12280150;28;20036;-79
2023/08/31 07:49:55;;;;;;;;;;;13.00;99.90;;;;;;12282031;28;20070;-81
2023/08/31 07:55:57;;;;;;;;;;;13.00;99.90;;;;;;12282953;28;19934;-80
2023/08/31 08:01:59;;;;;;;;;;;13.00;99.90;;;;;;12268579;28;19930;-81
2023/08/31 08:08:01;;;;;;;;;;;13.00;99.90;;;;;;12261777;28;20008;-81
2023/08/31 08:14:03;;;;;;;;;;;13.20;99.90;;;;;;12265123;28;19953;-81
2023/08/31 08:20:06;;;;;;;;;;;13.40;99.90;;;;;;12258266;28;19937;-81
2023/08/31 08:26:08;;;;;;;;;;;13.50;99.90;;;;;;12275107;28;19934;-82
2023/08/31 08:32:10;;;;;;;;;;;13.50;99.90;;;;;;12264015;28;19930;-82
2023/08/31 08:38:12;;;;;;;;;;;13.50;99.90;;;;;;12257530;28;21366;-82
2023/08/31 08:44:16;;;;;;;;;;;13.90;99.90;;;;;;12270824;28;20422;-82
2023/08/31 08:50:21;;;;;;;;;;;14.20;99.90;;;;;;12269624;28;20037;-81
2023/08/31 08:56:23;;;;;;;;;;;14.30;99.90;;;;;;12267892;28;20374;-82
2023/08/31 09:02:25;;;;;;;;;;;14.20;99.90;;;;;;12278023;28;19926;-82
2023/08/31 09:08:28;;;;;;;;;;;14.10;99.90;;;;;;12265488;28;20026;-81
2023/08/31 09:14:30;;;;;;;;;;;14.30;99.90;;;;;;12277153;28;20394;-81
2023/08/31 09:20:42;;;;;;;;;;;14.30;99.90;;;;;;12280383;28;19931;-80
2023/08/31 09:26:46;;;;;;;;;;;14.40;99.90;;;;;;12280048;28;19930;-82
2023/08/31 09:32:51;;;;;;;;;;;14.60;99.90;;;;;;12269699;28;20923;-82
2023/08/31 09:38:56;;;;;;;;;;;14.80;99.90;;;;;;12293234;28;19934;-81
2023/08/31 09:44:58;;;;;;;;;;;14.90;99.90;;;;;;12279856;28;19931;-82
2023/08/31 09:51:04;;;;;;;;;;;14.80;99.90;;;;;;12293592;28;19934;-82
2023/08/31 09:57:18;;;;;;;;;;;14.60;99.90;;;;;;12323162;28;19937;-83
2023/08/31 10:03:32;;;;;;;;;;;14.60;99.90;;;;;;12316719;28;21939;-81
2023/08/31 10:09:35;;;;;;;;;;;14.60;99.90;;;;;;12297941;28;20962;-82
2023/08/31 10:15:37;;;;;;;;;;;14.80;99.90;;;;;;12284229;28;19935;-82
2023/08/31 10:21:40;;;;;;;;;;;14.80;99.90;;;;;;12277975;28;19927;-81
2023/08/31 10:27:45;;;;;;;;;;;15.00;99.90;;;;;;12280253;28;19985;-82
2023/08/31 10:34:09;;;;;;;;;;;15.60;99.90;;;;;;12265462;28;20458;-82
2023/08/31 10:40:12;;;;;;;;;;;16.10;99.90;;;;;;12261920;28;19958;-82
2023/08/31 10:46:15;;;;;;;;;;;16.90;99.90;;;;;;12266371;28;20338;-83
2023/08/31 10:52:18;;;;;;;;;;;17.00;99.90;;;;;;12283181;28;19934;-83
2023/08/31 10:58:40;;;;;;;;;;;16.70;99.90;;;;;;12283917;28;19934;-82
2023/08/31 11:04:52;;;;;;;;;;;16.20;99.90;;;;;;12288676;28;20595;-82
2023/08/31 11:10:55;;;;;;;;;;;15.80;99.90;;;;;;12287477;28;19942;-83
2023/08/31 11:16:58;;;;;;;;;;;15.40;99.90;;;;;;12286651;28;19931;-84
2023/08/31 11:23:00;;;;;;;;;;;15.10;99.90;;;;;;12284650;28;20004;-83
2023/08/31 11:29:06;;;;;;;;;;;15.10;99.90;;;;;;12287064;28;19976;-82
2023/08/31 11:35:10;;;;;;;;;;;15.10;99.90;;;;;;12280590;28;20334;-82
2023/08/31 11:41:14;;;;;;;;;;;15.60;99.90;;;;;;12284220;28;19946;-83
2023/08/31 11:47:16;;;;;;;;;;;16.50;99.90;;;;;;12288845;28;20056;-83
2023/08/31 11:53:18;;;;;;;;;;;16.20;99.90;;;;;;12286368;28;19942;-83
2023/08/31 11:59:20;;;;;;;;;;;15.90;99.90;;;;;;12263068;28;19930;-82
2023/08/31 12:05:23;;;;;;;;;;;16.00;99.90;;;;;;12278808;28;19938;-84
2023/08/31 12:11:25;;;;;;;;;;;16.20;99.90;;;;;;12297390;28;20021;-82
2023/08/31 12:17:27;;;;;;;;;;;15.90;99.90;;;;;;12277901;28;19938;-83
2023/08/31 12:23:29;;;;;;;;;;;15.30;99.90;;;;;;12282090;28;20000;-82
2023/08/31 12:29:31;;;;;;;;;;;14.70;99.90;;;;;;12272244;28;19938;-83
2023/08/31 12:35:35;;;;;;;;;;;14.50;99.90;;;;;;12279615;28;20025;-82
2023/08/31 12:41:38;;;;;;;;;;;14.30;99.90;;;;;;12278640;28;20383;-82
2023/08/31 12:47:39;;;;;;;;;;;14.10;99.90;;;;;;12278325;28;19930;-83
2023/08/31 12:53:42;;;;;;;;;;;14.00;99.90;;;;;;12289939;28;19934;-83
2023/08/31 12:59:44;;;;;;;;;;;14.00;99.90;;;;;;12291776;28;19927;-82
2023/08/31 13:05:47;;;;;;;;;;;14.20;99.90;;;;;;12276612;28;20025;-83
2023/08/31 13:11:52;;;;;;;;;;;14.60;99.90;;;;;;12275671;28;20012;-83
2023/08/31 13:17:54;;;;;;;;;;;15.10;99.90;;;;;;12275348;28;19930;-83
2023/08/31 13:23:56;;;;;;;;;;;15.40;99.90;;;;;;12275616;28;19931;-84
2023/08/31 13:29:59;;;;;;;;;;;15.40;99.90;;;;;;12279249;28;19934;-83
2023/08/31 13:36:01;;;;;;;;;;;15.40;99.90;;;;;;12276299;28;19930;-83
2023/08/31 13:42:03;;;;;;;;;;;15.50;99.90;;;;;;12277395;28;19938;-83
2023/08/31 13:48:05;;;;;;;;;;;15.30;99.90;;;;;;12278591;28;19930;-83
2023/08/31 13:54:08;;;;;;;;;;;15.10;99.90;;;;;;12276842;28;19973;-84
2023/08/31 14:00:11;;;;;;;;;;;14.50;99.90;;;;;;12277872;28;19998;-84
2023/08/31 14:06:14;;;;;;;;;;;14.20;99.90;;;;;;12274095;28;19934;-84
2023/08/31 14:12:16;;;;;;;;;;;14.00;99.90;;;;;;12292127;28;20068;-84
2023/08/31 14:18:18;;;;;;;;;;;14.20;99.90;;;;;;12281634;28;19935;-85
2023/08/31 14:24:21;;;;;;;;;;;14.20;99.90;;;;;;12273781;28;19930;-82
2023/08/31 14:30:27;;;;;;;;;;;15.00;99.90;;;;;;12268196;28;19961;-82
2023/08/31 14:36:32;;;;;;;;;;;15.80;99.90;;;;;;12275860;28;19935;-82
2023/08/31 14:42:36;;;;;;;;;;;16.40;99.90;;;;;;12274858;28;19927;-83
2023/08/31 14:48:38;;;;;;;;;;;16.10;99.90;;;;;;12267819;28;20004;-83
2023/08/31 14:54:40;;;;;;;;;;;15.80;99.90;;;;;;12277008;28;19978;-82
2023/08/31 15:00:41;;;;;;;;;;;15.70;99.90;;;;;;12275544;28;19968;-82
2023/08/31 15:06:44;;;;;;;;;;;15.60;99.90;;;;;;12272853;28;19937;-82
2023/08/31 15:12:47;;;;;;;;;;;15.40;99.90;;;;;;12262963;28;19941;-81
2023/08/31 15:18:49;;;;;;;;;;;15.20;99.90;;;;;;12272255;28;19957;-82
2023/08/31 15:24:52;;;;;;;;;;;15.10;99.90;;;;;;12275150;28;19962;-82
2023/08/31 15:30:55;;;;;;;;;;;15.10;99.90;;;;;;12272223;28;19962;-83
2023/08/31 15:36:57;;;;;;;;;;;15.10;99.90;;;;;;12270847;28;19953;-82
2023/08/31 15:42:59;;;;;;;;;;;15.80;99.90;;;;;;12278357;28;19942;-82
2023/08/31 15:49:01;;;;;;;;;;;16.20;99.90;;;;;;12293835;28;19998;-82
2023/08/31 15:55:06;;;;;;;;;;;16.50;99.90;;;;;;12279696;28;19930;-82
2023/08/31 16:01:08;;;;;;;;;;;16.90;99.90;;;;;;12284320;28;20296;-82
2023/08/31 16:07:11;;;;;;;;;;;16.50;41.30;;;;;;12296709;28;20065;-82
2023/08/31 16:13:14;;;;;;;;;;;15.90;1.00;;;;;;12277372;28;19934;-82
2023/08/31 16:19:16;;;;;;;;;;;15.60;99.90;;;;;;12282574;28;19933;-82
2023/08/31 16:25:18;;;;;;;;;;;15.50;1.00;;;;;;12281163;28;19931;-82
2023/08/31 16:31:20;;;;;;;;;;;15.60;1.00;;;;;;12275895;28;19935;-83
2023/08/31 16:37:22;;;;;;;;;;;15.90;99.90;;;;;;12289747;28;19930;-83
2023/08/31 16:43:24;;;;;;;;;;;16.40;1.00;;;;;;12288567;28;19934;-82
2023/08/31 16:49:28;;;;;;;;;;;16.80;99.90;;;;;;12272075;28;19930;-86
2023/08/31 16:55:30;;;;;;;;;;;16.80;99.90;;;;;;12271416;28;19935;-84
2023/08/31 17:01:32;;;;;;;;;;;16.70;1.00;;;;;;12292288;28;19930;-83
2023/08/31 17:07:34;;;;;;;;;;;16.80;99.90;;;;;;12291356;28;20992;-83
2023/08/31 17:13:37;;;;;;;;;;;16.90;99.90;;;;;;12277905;28;20024;-84
2023/08/31 17:19:39;;;;;;;;;;;16.80;99.90;;;;;;12292433;28;19931;-83
2023/08/31 17:25:42;;;;;;;;;;;16.80;1.00;;;;;;12265874;28;19969;-83
2023/08/31 17:31:44;;;;;;;;;;;17.00;99.90;;;;;;12291072;28;19935;-83
2023/08/31 17:37:46;;;;;;;;;;;17.10;99.90;;;;;;12269466;28;19977;-82
2023/08/31 17:43:48;;;;;;;;;;;17.10;1.00;;;;;;12265448;28;19977;-82
2023/08/31 17:49:50;;;;;;;;;;;16.80;1.00;;;;;;12261953;28;19989;-83
2023/08/31 17:55:52;;;;;;;;;;;16.50;96.70;;;;;;12293193;28;19938;-82
2023/08/31 18:01:55;;;;;;;;;;;16.10;1.00;;;;;;12268721;28;20331;-82
2023/08/31 18:08:00;;;;;;;;;;;15.90;99.90;;;;;;12272326;28;20037;-82
2023/08/31 18:14:03;;;;;;;;;;;15.70;99.90;;;;;;12271491;28;19942;-83
2023/08/31 18:20:05;;;;;;;;;;;15.40;99.90;;;;;;12273733;28;19931;-82
2023/08/31 18:26:09;;;;;;;;;;;15.20;99.90;;;;;;12265857;28;20265;-82
2023/08/31 18:32:11;;;;;;;;;;;15.00;99.90;;;;;;12268572;28;21082;-82
2023/08/31 18:38:15;;;;;;;;;;;14.80;99.90;;;;;;12269010;28;19961;-82
2023/08/31 18:44:17;;;;;;;;;;;14.70;99.90;;;;;;12260759;28;20037;-82
2023/08/31 18:50:20;;;;;;;;;;;14.60;99.90;;;;;;12262375;28;19936;-82
2023/08/31 18:56:22;;;;;;;;;;;14.50;99.90;;;;;;12266634;28;19930;-81
2023/08/31 19:02:24;;;;;;;;;;;14.40;99.90;;;;;;12264897;28;19934;-82
2023/08/31 19:08:26;;;;;;;;;;;14.40;99.90;;;;;;12263079;28;19930;-81
2023/08/31 19:14:28;;;;;;;;;;;14.30;99.90;;;;;;12274075;28;19935;-81
2023/08/31 19:20:30;;;;;;;;;;;14.20;99.90;;;;;;12275575;28;19938;-81
2023/08/31 19:26:36;;;;;;;;;;;14.10;99.90;;;;;;12281997;28;19998;-80
2023/08/31 19:32:38;;;;;;;;;;;14.00;99.90;;;;;;12299531;28;19978;-81
2023/08/31 19:38:40;;;;;;;;;;;13.90;99.90;;;;;;12281023;28;19974;-81
2023/08/31 19:44:43;;;;;;;;;;;13.90;99.90;;;;;;12287246;28;19934;-81
2023/08/31 19:50:46;;;;;;;;;;;13.90;99.90;;;;;;12285337;28;19931;-82
2023/08/31 19:56:48;;;;;;;;;;;13.90;99.90;;;;;;12280680;28;20029;-80
2023/08/31 20:02:50;;;;;;;;;;;13.80;99.90;;;;;;12280625;28;20459;-81
2023/08/31 20:08:52;;;;;;;;;;;13.70;99.90;;;;;;12276694;28;19930;-81
2023/08/31 20:14:54;;;;;;;;;;;13.70;99.90;;;;;;12277884;28;20310;-81
2023/08/31 20:20:57;;;;;;;;;;;13.60;99.90;;;;;;12298421;28;19938;-83
2023/08/31 20:27:01;;;;;;;;;;;13.70;99.90;;;;;;12279263;28;19931;-81
2023/08/31 20:33:03;;;;;;;;;;;13.50;99.90;;;;;;12280013;28;19977;-81
2023/08/31 20:39:11;;;;;;;;;;;13.40;99.90;;;;;;12279315;28;20013;-81
2023/08/31 20:45:15;;;;;;;;;;;13.40;99.90;;;;;;12282001;28;20417;-82
2023/08/31 20:51:17;;;;;;;;;;;13.40;99.90;;;;;;12293471;28;19978;-80
2023/08/31 20:57:19;;;;;;;;;;;13.30;99.90;;;;;;12265528;28;20409;-80
2023/08/31 21:03:20;;;;;;;;;;;13.30;99.90;;;;;;12279037;28;19965;-81
2023/08/31 21:09:25;;;;;;;;;;;13.30;99.90;;;;;;12291392;28;19930;-83
2023/08/31 21:15:27;;;;;;;;;;;13.10;99.90;;;;;;12275640;28;20398;-80
2023/08/31 21:21:29;;;;;;;;;;;13.10;99.90;;;;;;12276980;28;19969;-81
2023/08/31 21:27:31;;;;;;;;;;;13.10;99.90;;;;;;12286886;28;19960;-83
2023/08/31 21:33:32;;;;;;;;;;;13.10;99.90;;;;;;12275180;28;19953;-81
2023/08/31 21:39:34;;;;;;;;;;;13.00;99.90;;;;;;12293130;28;20044;-82
2023/08/31 21:45:36;;;;;;;;;;;13.00;99.90;;;;;;12280388;28;19964;-81
2023/08/31 21:51:39;;;;;;;;;;;13.00;99.90;;;;;;12276338;28;19941;-81
2023/08/31 21:57:44;;;;;;;;;;;13.00;99.90;;;;;;12279110;28;19934;-82
2023/08/31 22:03:48;;;;;;;;;;;13.10;99.90;;;;;;12275461;28;19930;-82
2023/08/31 22:09:50;;;;;;;;;;;13.10;99.90;;;;;;12294868;28;19957;-81
2023/08/31 22:15:52;;;;;;;;;;;13.10;99.90;;;;;;12281694;28;20006;-82
2023/08/31 22:21:55;;;;;;;;;;;13.10;99.90;;;;;;12289624;28;19969;-82
2023/08/31 22:27:57;;;;;;;;;;;13.00;99.90;;;;;;12284001;28;19969;-83
2023/08/31 22:33:59;;;;;;;;;;;13.00;99.90;;;;;;12273661;28;19926;-81
2023/08/31 22:40:01;;;;;;;;;;;13.00;99.90;;;;;;12276659;28;19930;-82
2023/08/31 22:46:03;;;;;;;;;;;13.10;99.90;;;;;;12278956;28;19934;-81
2023/08/31 22:52:09;;;;;;;;;;;13.00;99.90;;;;;;12278971;28;20001;-82
2023/08/31 22:58:11;;;;;;;;;;;12.90;99.90;;;;;;12265329;28;19942;-81
2023/08/31 23:04:14;;;;;;;;;;;12.90;99.90;;;;;;12272300;28;20438;-81
2023/08/31 23:10:16;;;;;;;;;;;12.90;99.90;;;;;;12270498;28;19926;-81
2023/08/31 23:16:32;;;;;;;;;;;12.80;99.90;;;;;;12270422;28;20367;-81
2023/08/31 23:22:34;;;;;;;;;;;13.00;99.90;;;;;;12274898;28;19938;-82
2023/08/31 23:28:37;;;;;;;;;;;12.60;99.90;;;;;;12272605;28;20296;-83
2023/08/31 23:34:38;;;;;;;;;;;13.00;99.90;;;;;;12274324;28;19935;-83
2023/08/31 23:40:41;;;;;;;;;;;13.00;99.90;;;;;;12278947;28;20299;-83
2023/08/31 23:46:43;;;;;;;;;;;13.10;99.90;;;;;;12296525;28;20022;-82
2023/08/31 23:52:44;;;;;;;;;;;13.10;99.90;;;;;;12283370;28;19981;-83
2023/08/31 23:58:46;;;;;;;;;;;13.10;99.90;;;;;;12290432;28;19930;-83
